Time;durP1;ratioP1;P1;durP2;ratioP2;P2;SDS_P1;SDS_P2;PMS_P1;PMS_P2;Temp;Humidity;BMP_temperature;BMP_pressure;BME280_temperature;BME280_humidity;BME280_pressure;Samples;Min_cycle;Max_cycle;Signal;HPM_P1;HPM_P2
2022/11/26 00:02:18;;;;;;;7.32;2.63;;;;;;;;;;4951593;29;20087;-44
2022/11/26 00:04:43;;;;;;;8.35;2.70;;;;;;;;;;4950050;29;20189;-49
2022/11/26 00:07:11;;;;;;;10.52;3.10;;;;;;;;;;4952746;28;20105;-44
2022/11/26 00:09:37;;;;;;;8.82;2.42;;;;;;;;;;4953227;28;20024;-44
2022/11/26 00:12:14;;;;;;;9.65;3.17;;;;;;;;;;4947067;28;20026;-47
2022/11/26 00:14:40;;;;;;;8.68;2.83;;;;;;;;;;4949832;28;20039;-46
2022/11/26 00:17:05;;;;;;;7.85;2.70;;;;;;;;;;4952101;29;20059;-49
2022/11/26 00:19:30;;;;;;;9.70;2.28;;;;;;;;;;4951219;29;20510;-44
2022/11/26 00:21:56;;;;;;;22.52;2.78;;;;;;;;;;4951852;29;20067;-43
2022/11/26 00:24:26;;;;;;;9.85;3.00;;;;;;;;;;4950321;29;20040;-45
2022/11/26 00:26:54;;;;;;;8.50;2.25;;;;;;;;;;4951858;29;20536;-43
2022/11/26 00:29:19;;;;;;;8.73;2.33;;;;;;;;;;4950192;29;20515;-43
2022/11/26 00:31:44;;;;;;;7.90;2.30;;;;;;;;;;4951535;29;20055;-44
2022/11/26 00:34:10;;;;;;;6.15;1.90;;;;;;;;;;4945604;28;20461;-45
2022/11/26 00:36:35;;;;;;;6.57;2.42;;;;;;;;;;4943905;29;20031;-43
2022/11/26 00:39:02;;;;;;;5.00;2.40;;;;;;;;;;4949669;29;20050;-44
2022/11/26 00:41:34;;;;;;;7.32;2.50;;;;;;;;;;4951946;29;20105;-47
2022/11/26 00:43:59;;;;;;;11.55;3.20;;;;;;;;;;4948239;28;20126;-45
2022/11/26 00:46:25;;;;;;;9.82;2.78;;;;;;;;;;4951033;29;20117;-45
2022/11/26 00:48:50;;;;;;;7.18;2.63;;;;;;;;;;4951918;29;20086;-47
2022/11/26 00:51:22;;;;;;;14.73;2.50;;;;;;;;;;4952244;28;20039;-45
2022/11/26 00:53:49;;;;;;;11.52;2.65;;;;;;;;;;4951322;29;20062;-46
2022/11/26 00:56:17;;;;;;;10.55;2.35;;;;;;;;;;4952284;29;20126;-43
2022/11/26 00:58:43;;;;;;;8.90;2.75;;;;;;;;;;4949866;28;20114;-45
2022/11/26 01:01:15;;;;;;;7.40;2.45;;;;;;;;;;4951388;29;20387;-43
2022/11/26 01:03:41;;;;;;;8.02;2.20;;;;;;;;;;4949257;29;20081;-46
2022/11/26 01:06:16;;;;;;;10.10;2.50;;;;;;;;;;4951846;29;20027;-44
2022/11/26 01:08:42;;;;;;;6.00;2.15;;;;;;;;;;4950136;29;20114;-44
2022/11/26 01:11:12;;;;;;;4.68;1.83;;;;;;;;;;4952417;29;20114;-46
2022/11/26 01:13:37;;;;;;;7.18;2.30;;;;;;;;;;4950649;29;20035;-45
2022/11/26 01:16:20;;;;;;;7.38;2.35;;;;;;;;;;4951525;29;20033;-43
2022/11/26 01:18:49;;;;;;;10.68;2.25;;;;;;;;;;4949631;28;20118;-47
2022/11/26 01:21:15;;;;;;;10.13;2.53;;;;;;;;;;4950618;29;20062;-49
2022/11/26 01:23:40;;;;;;;14.77;3.58;;;;;;;;;;4949021;28;20464;-46
2022/11/26 01:26:12;;;;;;;8.15;2.10;;;;;;;;;;4951606;29;20502;-43
2022/11/26 01:28:37;;;;;;;9.90;2.72;;;;;;;;;;4950517;29;20019;-43
2022/11/26 01:31:03;;;;;;;11.85;2.25;;;;;;;;;;4950444;29;20051;-43
2022/11/26 01:33:28;;;;;;;7.95;2.30;;;;;;;;;;4950463;29;20031;-43
2022/11/26 01:35:53;;;;;;;9.85;1.88;;;;;;;;;;4948930;29;20077;-44
2022/11/26 01:38:19;;;;;;;7.10;2.67;;;;;;;;;;4947063;29;20400;-47
2022/11/26 01:41:01;;;;;;;9.77;2.03;;;;;;;;;;4948389;28;20046;-43
2022/11/26 01:43:40;;;;;;;4.90;2.00;;;;;;;;;;4948519;28;20031;-46
2022/11/26 01:46:25;;;;;;;9.02;2.50;;;;;;;;;;4946206;29;20043;-43
2022/11/26 01:48:52;;;;;;;6.57;2.42;;;;;;;;;;4945091;29;20027;-43
2022/11/26 01:51:28;;;;;;;11.02;2.45;;;;;;;;;;4948766;28;20050;-44
2022/11/26 01:53:57;;;;;;;4.50;1.83;;;;;;;;;;4946649;28;20044;-46
2022/11/26 01:56:35;;;;;;;6.68;2.13;;;;;;;;;;4951623;29;20035;-46
2022/11/26 01:59:19;;;;;;;8.18;1.67;;;;;;;;;;4948880;29;20057;-46
2022/11/26 02:01:47;;;;;;;7.10;1.98;;;;;;;;;;4951645;28;20094;-44
2022/11/26 02:04:15;;;;;;;7.30;1.90;;;;;;;;;;4950528;28;20051;-51
2022/11/26 02:06:42;;;;;;;6.03;2.78;;;;;;;;;;4951704;29;20035;-43
2022/11/26 02:09:09;;;;;;;6.72;2.20;;;;;;;;;;4948375;28;20056;-46
2022/11/26 02:11:35;;;;;;;12.70;2.45;;;;;;;;;;4945440;28;20039;-47
2022/11/26 02:14:04;;;;;;;9.35;1.92;;;;;;;;;;4950278;29;20039;-43
2022/11/26 02:16:42;;;;;;;4.85;2.15;;;;;;;;;;4950367;29;20020;-47
2022/11/26 02:19:49;;;;;;;5.15;2.42;;;;;;;;;;4949681;29;20039;-44
2022/11/26 02:22:36;;;;;;;6.07;2.08;;;;;;;;;;4947710;29;20100;-44
2022/11/26 02:25:04;;;;;;;3.58;1.52;;;;;;;;;;4948735;28;20074;-46
2022/11/26 02:27:44;;;;;;;11.27;2.10;;;;;;;;;;4947059;28;20116;-45
2022/11/26 02:30:14;;;;;;;6.78;1.98;;;;;;;;;;4948126;29;20515;-45
2022/11/26 02:32:58;;;;;;;8.20;2.28;;;;;;;;;;4949912;29;20047;-43
2022/11/26 02:35:29;;;;;;;6.28;1.92;;;;;;;;;;4950942;28;20044;-49
2022/11/26 02:37:58;;;;;;;3.58;1.73;;;;;;;;;;4949438;29;20035;-46
2022/11/26 02:40:24;;;;;;;6.82;2.33;;;;;;;;;;4952209;29;20489;-47
2022/11/26 02:42:49;;;;;;;7.88;1.50;;;;;;;;;;4953092;28;20043;-43
2022/11/26 02:45:18;;;;;;;6.28;2.03;;;;;;;;;;4952552;29;20047;-49
2022/11/26 02:47:47;;;;;;;5.88;1.58;;;;;;;;;;4952549;29;20068;-44
2022/11/26 02:50:21;;;;;;;7.55;1.80;;;;;;;;;;4952031;28;20046;-45
2022/11/26 02:52:48;;;;;;;5.70;1.63;;;;;;;;;;4954383;29;20039;-48
2022/11/26 02:55:16;;;;;;;10.20;2.05;;;;;;;;;;4952191;29;20052;-48
2022/11/26 02:57:48;;;;;;;8.23;2.63;;;;;;;;;;4952809;29;20051;-44
2022/11/26 03:00:15;;;;;;;9.90;2.33;;;;;;;;;;4946734;29;20493;-44
2022/11/26 03:02:53;;;;;;;6.70;2.00;;;;;;;;;;4952730;29;20039;-49
2022/11/26 03:05:19;;;;;;;6.82;2.30;;;;;;;;;;4953873;29;20043;-49
2022/11/26 03:07:51;;;;;;;8.52;2.42;;;;;;;;;;4953298;28;20070;-49
2022/11/26 03:10:19;;;;;;;9.52;1.90;;;;;;;;;;4952332;28;20046;-47
2022/11/26 03:12:44;;;;;;;8.07;2.22;;;;;;;;;;4949951;29;20070;-43
2022/11/26 03:15:10;;;;;;;5.95;1.50;;;;;;;;;;4952112;28;20093;-45
2022/11/26 03:17:35;;;;;;;4.97;1.83;;;;;;;;;;4950717;29;20031;-49
2022/11/26 03:20:02;;;;;;;5.50;1.70;;;;;;;;;;4952890;29;20451;-47
2022/11/26 03:22:28;;;;;;;8.43;1.95;;;;;;;;;;4951484;28;20098;-47
2022/11/26 03:24:53;;;;;;;10.57;1.90;;;;;;;;;;4951203;28;20043;-45
2022/11/26 03:27:19;;;;;;;6.53;1.70;;;;;;;;;;4951582;28;20039;-45
2022/11/26 03:29:44;;;;;;;10.85;2.08;;;;;;;;;;4930940;29;20063;-51
2022/11/26 03:32:09;;;;;;;11.32;1.58;;;;;;;;;;4949980;28;20047;-46
2022/11/26 03:34:35;;;;;;;8.32;2.30;;;;;;;;;;4951946;29;20499;-46
2022/11/26 03:37:00;;;;;;;4.25;1.73;;;;;;;;;;4951963;29;20142;-47
2022/11/26 03:39:26;;;;;;;7.82;1.75;;;;;;;;;;4951974;28;20035;-46
2022/11/26 03:41:51;;;;;;;11.77;2.03;;;;;;;;;;4951113;29;20503;-50
2022/11/26 03:44:16;;;;;;;5.53;2.42;;;;;;;;;;4951333;29;20035;-49
2022/11/26 03:46:42;;;;;;;6.60;1.95;;;;;;;;;;4951244;28;20035;-46
2022/11/26 03:49:07;;;;;;;6.07;1.60;;;;;;;;;;4948100;29;20986;-48
2022/11/26 03:51:33;;;;;;;4.43;1.73;;;;;;;;;;4949042;28;20077;-49
2022/11/26 03:53:58;;;;;;;8.77;1.70;;;;;;;;;;4951403;29;20039;-43
2022/11/26 03:56:24;;;;;;;4.93;1.73;;;;;;;;;;4951879;29;20373;-51
2022/11/26 03:58:49;;;;;;;6.07;1.98;;;;;;;;;;4948725;28;20031;-44
2022/11/26 04:01:14;;;;;;;5.40;2.03;;;;;;;;;;4943447;29;20035;-50
2022/11/26 04:03:40;;;;;;;6.40;1.70;;;;;;;;;;4951921;29;20537;-47
2022/11/26 04:06:06;;;;;;;8.07;2.03;;;;;;;;;;4950643;29;20046;-44
2022/11/26 04:08:31;;;;;;;8.15;2.40;;;;;;;;;;4950906;29;20503;-45
2022/11/26 04:10:57;;;;;;;6.10;1.80;;;;;;;;;;4950448;28;20036;-43
2022/11/26 04:13:22;;;;;;;7.90;2.47;;;;;;;;;;4952049;29;20046;-43
2022/11/26 04:15:48;;;;;;;4.20;1.75;;;;;;;;;;4951941;29;20040;-45
2022/11/26 04:18:14;;;;;;;7.30;2.05;;;;;;;;;;4952985;29;20046;-46
2022/11/26 04:20:39;;;;;;;7.03;2.08;;;;;;;;;;4948545;29;20106;-44
2022/11/26 04:23:05;;;;;;;6.28;1.92;;;;;;;;;;4950590;28;20543;-44
2022/11/26 04:25:30;;;;;;;4.03;1.67;;;;;;;;;;4950038;28;20074;-44
2022/11/26 04:27:56;;;;;;;5.75;1.98;;;;;;;;;;4946029;29;20365;-48
2022/11/26 04:30:22;;;;;;;8.20;2.20;;;;;;;;;;4950388;29;20071;-44
2022/11/26 04:32:47;;;;;;;9.95;1.95;;;;;;;;;;4949914;29;20039;-44
2022/11/26 04:35:13;;;;;;;11.43;1.90;;;;;;;;;;4939381;29;20385;-44
2022/11/26 04:37:39;;;;;;;6.28;1.73;;;;;;;;;;4949537;29;20027;-43
2022/11/26 04:40:05;;;;;;;8.75;2.10;;;;;;;;;;4949031;28;20135;-44
2022/11/26 04:42:30;;;;;;;12.35;2.25;;;;;;;;;;4948343;28;20384;-43
2022/11/26 04:44:56;;;;;;;7.38;1.85;;;;;;;;;;4949376;29;20119;-45
2022/11/26 04:47:21;;;;;;;7.60;2.05;;;;;;;;;;4951453;28;20041;-43
2022/11/26 04:49:46;;;;;;;9.65;2.00;;;;;;;;;;4947632;29;20452;-44
2022/11/26 04:52:12;;;;;;;11.32;1.95;;;;;;;;;;4947791;29;20051;-44
2022/11/26 04:54:37;;;;;;;6.68;1.70;;;;;;;;;;4950160;29;20453;-45
2022/11/26 04:57:02;;;;;;;5.82;1.73;;;;;;;;;;4951326;29;20031;-44
2022/11/26 04:59:28;;;;;;;7.72;2.72;;;;;;;;;;4947841;28;20047;-45
2022/11/26 05:01:53;;;;;;;5.72;2.00;;;;;;;;;;4950404;29;20338;-44
2022/11/26 05:04:19;;;;;;;9.05;2.42;;;;;;;;;;4950277;28;20039;-43
2022/11/26 05:06:44;;;;;;;5.95;1.80;;;;;;;;;;4950754;29;20503;-43
2022/11/26 05:09:10;;;;;;;9.13;2.00;;;;;;;;;;4948880;29;20496;-43
2022/11/26 05:11:35;;;;;;;5.43;1.60;;;;;;;;;;4948810;29;20046;-44
2022/11/26 05:14:01;;;;;;;6.30;2.13;;;;;;;;;;4946546;29;20043;-44
2022/11/26 05:16:26;;;;;;;6.80;1.77;;;;;;;;;;4950807;29;20183;-45
2022/11/26 05:18:51;;;;;;;7.15;1.83;;;;;;;;;;4947399;28;20051;-46
2022/11/26 05:21:17;;;;;;;7.25;1.70;;;;;;;;;;4952245;29;20783;-44
2022/11/26 05:23:42;;;;;;;5.15;1.80;;;;;;;;;;4949612;29;20031;-43
2022/11/26 05:26:07;;;;;;;6.88;1.60;;;;;;;;;;4950875;29;20674;-43
2022/11/26 05:28:33;;;;;;;8.63;2.40;;;;;;;;;;4948952;29;20360;-43
2022/11/26 05:30:59;;;;;;;10.23;2.08;;;;;;;;;;4949249;29;20039;-44
2022/11/26 05:33:25;;;;;;;7.32;1.85;;;;;;;;;;4948072;29;20031;-44
2022/11/26 05:35:51;;;;;;;8.77;2.35;;;;;;;;;;4950188;28;20050;-43
2022/11/26 05:38:16;;;;;;;7.13;1.90;;;;;;;;;;4947406;28;20039;-43
2022/11/26 05:40:41;;;;;;;9.20;2.05;;;;;;;;;;4949096;28;20110;-43
2022/11/26 05:43:07;;;;;;;6.32;1.55;;;;;;;;;;4951802;29;20089;-45
2022/11/26 05:45:32;;;;;;;7.75;1.60;;;;;;;;;;4950102;29;20424;-43
2022/11/26 05:47:58;;;;;;;3.88;1.65;;;;;;;;;;4949959;29;20407;-45
2022/11/26 05:50:23;;;;;;;4.00;1.80;;;;;;;;;;4949967;28;20050;-44
2022/11/26 05:52:48;;;;;;;10.88;2.17;;;;;;;;;;4950723;29;20031;-45
2022/11/26 05:55:15;;;;;;;4.22;1.98;;;;;;;;;;4949158;29;20090;-43
2022/11/26 05:57:41;;;;;;;8.48;2.05;;;;;;;;;;4951035;29;20034;-44
2022/11/26 06:00:08;;;;;;;9.85;2.20;;;;;;;;;;4947673;28;20040;-43
2022/11/26 06:02:33;;;;;;;4.35;1.63;;;;;;;;;;4949406;29;20053;-44
2022/11/26 06:04:58;;;;;;;9.82;2.05;;;;;;;;;;4949147;29;20689;-43
2022/11/26 06:07:24;;;;;;;8.30;1.67;;;;;;;;;;4950401;29;20035;-51
2022/11/26 06:09:49;;;;;;;8.00;1.90;;;;;;;;;;4948528;28;20448;-43
2022/11/26 06:12:14;;;;;;;5.15;1.90;;;;;;;;;;4949282;29;20023;-43
2022/11/26 06:14:40;;;;;;;7.78;1.88;;;;;;;;;;4949714;29;20069;-46
2022/11/26 06:17:05;;;;;;;9.20;2.15;;;;;;;;;;4953230;29;20032;-45
2022/11/26 06:19:30;;;;;;;7.80;2.40;;;;;;;;;;4949230;28;20514;-44
2022/11/26 06:21:56;;;;;;;6.97;2.03;;;;;;;;;;4951386;29;20058;-47
2022/11/26 06:24:21;;;;;;;5.60;2.10;;;;;;;;;;4947666;29;20039;-43
2022/11/26 06:26:46;;;;;;;8.77;2.20;;;;;;;;;;4953028;29;20050;-44
2022/11/26 06:29:12;;;;;;;5.68;2.42;;;;;;;;;;4953207;29;20043;-45
2022/11/26 06:31:37;;;;;;;8.88;2.22;;;;;;;;;;4953018;29;20076;-44
2022/11/26 06:34:03;;;;;;;7.25;2.47;;;;;;;;;;4952763;29;20105;-47
2022/11/26 06:36:28;;;;;;;8.93;2.28;;;;;;;;;;4949510;29;20122;-44
2022/11/26 06:38:53;;;;;;;5.30;2.22;;;;;;;;;;4951648;28;20062;-43
2022/11/26 06:41:19;;;;;;;8.13;2.00;;;;;;;;;;4953678;29;20063;-44
2022/11/26 06:43:44;;;;;;;4.88;1.92;;;;;;;;;;4951800;29;20050;-43
2022/11/26 06:46:10;;;;;;;9.30;2.33;;;;;;;;;;4952828;29;20380;-43
2022/11/26 06:48:36;;;;;;;5.13;1.77;;;;;;;;;;4952804;28;20031;-43
2022/11/26 06:51:13;;;;;;;7.45;2.15;;;;;;;;;;4952725;29;20492;-44
2022/11/26 06:53:38;;;;;;;8.70;2.30;;;;;;;;;;4950319;28;20086;-45
2022/11/26 06:56:15;;;;;;;5.68;1.63;;;;;;;;;;4949213;29;20031;-43
2022/11/26 06:58:41;;;;;;;8.25;2.08;;;;;;;;;;4948097;28;20483;-45
2022/11/26 07:01:13;;;;;;;6.85;2.60;;;;;;;;;;4952040;29;20085;-43
2022/11/26 07:03:38;;;;;;;6.53;2.70;;;;;;;;;;4951605;28;20031;-42
2022/11/26 07:06:04;;;;;;;6.38;2.47;;;;;;;;;;4945722;29;20034;-43
2022/11/26 07:08:29;;;;;;;6.45;2.13;;;;;;;;;;4953114;29;20155;-43
2022/11/26 07:10:54;;;;;;;9.43;1.98;;;;;;;;;;4953083;28;20043;-43
2022/11/26 07:13:20;;;;;;;7.32;2.35;;;;;;;;;;4950222;29;20023;-44
2022/11/26 07:15:45;;;;;;;10.57;2.20;;;;;;;;;;4951203;29;20051;-43
2022/11/26 07:18:11;;;;;;;8.23;2.13;;;;;;;;;;4950169;29;20039;-46
2022/11/26 07:20:36;;;;;;;4.80;1.88;;;;;;;;;;4950712;28;20142;-44
2022/11/26 07:23:03;;;;;;;4.03;1.85;;;;;;;;;;4942887;28;20035;-44
2022/11/26 07:25:29;;;;;;;6.22;1.60;;;;;;;;;;4946733;28;20039;-43
2022/11/26 07:27:54;;;;;;;6.57;1.95;;;;;;;;;;4948109;29;20042;-45
2022/11/26 07:30:20;;;;;;;7.15;2.70;;;;;;;;;;4947181;28;20050;-45
2022/11/26 07:32:45;;;;;;;6.97;2.70;;;;;;;;;;4951691;28;20591;-45
2022/11/26 07:35:11;;;;;;;16.70;2.97;;;;;;;;;;4953380;28;20039;-44
2022/11/26 07:37:36;;;;;;;12.98;4.05;;;;;;;;;;4951965;28;20032;-43
2022/11/26 07:40:03;;;;;;;5.43;3.10;;;;;;;;;;4944951;28;20143;-43
2022/11/26 07:42:31;;;;;;;10.48;2.95;;;;;;;;;;4949075;28;20027;-46
2022/11/26 07:44:56;;;;;;;7.88;2.72;;;;;;;;;;4953729;28;20036;-43
2022/11/26 07:47:21;;;;;;;9.23;2.97;;;;;;;;;;4950512;28;20031;-45
2022/11/26 07:49:47;;;;;;;5.85;1.98;;;;;;;;;;4952923;28;20099;-44
2022/11/26 07:52:12;;;;;;;3.25;2.13;;;;;;;;;;4949960;28;20027;-44
2022/11/26 07:54:38;;;;;;;7.07;2.58;;;;;;;;;;4951710;28;20078;-44
2022/11/26 07:57:03;;;;;;;6.88;2.28;;;;;;;;;;4949783;28;20027;-44
2022/11/26 07:59:28;;;;;;;7.78;2.28;;;;;;;;;;4946647;29;20040;-45
2022/11/26 08:01:54;;;;;;;12.27;2.50;;;;;;;;;;4954127;28;20049;-46
2022/11/26 08:04:19;;;;;;;9.73;2.53;;;;;;;;;;4948023;28;20547;-44
2022/11/26 08:06:44;;;;;;;8.77;2.45;;;;;;;;;;4946656;29;20031;-46
2022/11/26 08:09:10;;;;;;;8.68;2.10;;;;;;;;;;4951599;29;20146;-43
2022/11/26 08:11:35;;;;;;;9.65;2.38;;;;;;;;;;4949305;29;20468;-44
2022/11/26 08:14:06;;;;;;;9.18;2.05;;;;;;;;;;4947236;28;20053;-44
2022/11/26 08:16:32;;;;;;;5.90;1.92;;;;;;;;;;4950242;28;20035;-43
2022/11/26 08:18:59;;;;;;;7.40;2.63;;;;;;;;;;4949853;28;20051;-44
2022/11/26 08:21:25;;;;;;;5.13;2.60;;;;;;;;;;4944697;28;20031;-45
2022/11/26 08:23:52;;;;;;;13.45;3.22;;;;;;;;;;4951337;28;20058;-46
2022/11/26 08:26:18;;;;;;;4.60;2.33;;;;;;;;;;4946071;28;20071;-43
2022/11/26 08:28:45;;;;;;;5.78;2.10;;;;;;;;;;4946436;28;20035;-43
2022/11/26 08:31:11;;;;;;;5.30;1.90;;;;;;;;;;4945429;28;20409;-45
2022/11/26 08:33:38;;;;;;;5.38;2.25;;;;;;;;;;4943202;28;20036;-44
2022/11/26 08:36:04;;;;;;;4.00;1.60;;;;;;;;;;4949061;28;20050;-44
2022/11/26 08:38:29;;;;;;;4.82;2.42;;;;;;;;;;4945459;28;20143;-43
2022/11/26 08:41:02;;;;;;;7.07;2.10;;;;;;;;;;4942367;28;20155;-44
2022/11/26 08:43:28;;;;;;;5.95;1.92;;;;;;;;;;4946607;28;20046;-45
2022/11/26 08:45:55;;;;;;;8.98;2.47;;;;;;;;;;4947731;28;20373;-45
2022/11/26 08:48:21;;;;;;;4.63;1.92;;;;;;;;;;4948297;28;20129;-44
2022/11/26 08:50:47;;;;;;;4.82;2.25;;;;;;;;;;4945325;28;20515;-43
2022/11/26 08:53:12;;;;;;;3.60;1.83;;;;;;;;;;4946786;28;20035;-45
2022/11/26 08:55:38;;;;;;;6.05;2.85;;;;;;;;;;4943516;28;20027;-46
2022/11/26 08:58:03;;;;;;;5.50;1.98;;;;;;;;;;4944578;28;20035;-43
2022/11/26 09:00:28;;;;;;;5.45;2.28;;;;;;;;;;4948547;28;20047;-46
2022/11/26 09:02:53;;;;;;;6.35;1.80;;;;;;;;;;4947179;28;20043;-45
2022/11/26 09:05:19;;;;;;;6.50;2.22;;;;;;;;;;4950556;28;20835;-43
2022/11/26 09:07:45;;;;;;;5.57;2.33;;;;;;;;;;4947778;28;20499;-45
2022/11/26 09:10:11;;;;;;;3.83;2.13;;;;;;;;;;4949056;28;20031;-44
2022/11/26 09:12:36;;;;;;;10.25;3.08;;;;;;;;;;4946617;28;20058;-44
2022/11/26 09:15:02;;;;;;;8.45;2.72;;;;;;;;;;4948107;28;20043;-46
2022/11/26 09:17:27;;;;;;;4.82;2.10;;;;;;;;;;4949042;28;20023;-44
2022/11/26 09:19:53;;;;;;;6.40;2.70;;;;;;;;;;4948424;28;20054;-44
2022/11/26 09:22:18;;;;;;;7.30;2.85;;;;;;;;;;4948468;28;20473;-49
2022/11/26 09:24:43;;;;;;;6.97;2.80;;;;;;;;;;4949357;28;20047;-44
2022/11/26 09:27:10;;;;;;;6.03;2.38;;;;;;;;;;4950066;29;20019;-47
2022/11/26 09:29:36;;;;;;;9.50;3.08;;;;;;;;;;4949644;28;20050;-44
2022/11/26 09:32:02;;;;;;;5.43;2.63;;;;;;;;;;4947515;29;20051;-46
2022/11/26 09:34:28;;;;;;;6.82;2.20;;;;;;;;;;4948546;29;20045;-45
2022/11/26 09:36:53;;;;;;;7.35;2.28;;;;;;;;;;4950149;29;20023;-48
2022/11/26 09:39:19;;;;;;;8.57;2.42;;;;;;;;;;4949151;28;20062;-49
2022/11/26 09:41:53;;;;;;;6.10;2.60;;;;;;;;;;4948712;29;20130;-44
2022/11/26 09:44:21;;;;;;;12.73;3.20;;;;;;;;;;4948351;29;20067;-44
2022/11/26 09:46:49;;;;;;;6.13;2.38;;;;;;;;;;4950674;29;20137;-44
2022/11/26 09:49:16;;;;;;;7.97;2.65;;;;;;;;;;4949076;29;20043;-46
2022/11/26 09:51:44;;;;;;;7.93;3.03;;;;;;;;;;4948780;29;20031;-45
2022/11/26 09:54:17;;;;;;;8.43;2.83;;;;;;;;;;4946920;28;20039;-45
2022/11/26 09:56:42;;;;;;;7.72;2.20;;;;;;;;;;4950287;29;20563;-44
2022/11/26 09:59:12;;;;;;;4.57;2.00;;;;;;;;;;4948570;29;20122;-44
2022/11/26 10:01:39;;;;;;;6.40;2.00;;;;;;;;;;4949061;29;20032;-44
2022/11/26 10:04:20;;;;;;;5.25;1.90;;;;;;;;;;4949196;28;20051;-44
2022/11/26 10:06:49;;;;;;;6.35;1.88;;;;;;;;;;4945267;29;20083;-44
2022/11/26 10:09:32;;;;;;;9.00;2.30;;;;;;;;;;4948757;28;20094;-44
2022/11/26 10:12:15;;;;;;;6.13;2.03;;;;;;;;;;4948452;29;20031;-44
2022/11/26 10:15:01;;;;;;;6.95;2.20;;;;;;;;;;4949492;29;20093;-46
2022/11/26 10:17:50;;;;;;;9.25;1.60;;;;;;;;;;4948970;29;20055;-49
2022/11/26 10:20:53;;;;;;;13.30;2.60;;;;;;;;;;4949519;29;20074;-44
2022/11/26 10:23:27;;;;;;;5.30;2.10;;;;;;;;;;4949030;28;20043;-50
2022/11/26 10:25:57;;;;;;;5.72;1.67;;;;;;;;;;4947816;29;20035;-43
2022/11/26 10:28:48;;;;;;;4.95;2.03;;;;;;;;;;4949414;29;20093;-46
2022/11/26 10:31:23;;;;;;;3.78;1.90;;;;;;;;;;4949918;29;20043;-44
2022/11/26 10:33:55;;;;;;;5.03;1.88;;;;;;;;;;4948763;29;20395;-44
2022/11/26 10:36:34;;;;;;;7.82;2.60;;;;;;;;;;4949094;29;20070;-45
2022/11/26 10:39:01;;;;;;;5.28;2.30;;;;;;;;;;4947058;28;20047;-45
2022/11/26 10:41:34;;;;;;;5.43;2.13;;;;;;;;;;4948484;29;20365;-49
2022/11/26 10:44:32;;;;;;;7.03;1.90;;;;;;;;;;4948300;28;20106;-46
2022/11/26 10:46:58;;;;;;;6.20;2.25;;;;;;;;;;4949364;29;20502;-45
2022/11/26 10:49:28;;;;;;;8.20;2.22;;;;;;;;;;4948781;29;20204;-46
2022/11/26 10:52:00;;;;;;;5.63;1.95;;;;;;;;;;4949332;29;20024;-52
2022/11/26 10:54:25;;;;;;;5.67;1.90;;;;;;;;;;4947807;28;20609;-46
2022/11/26 10:56:54;;;;;;;7.78;2.13;;;;;;;;;;4951119;28;20473;-44
2022/11/26 10:59:29;;;;;;;5.53;2.03;;;;;;;;;;4951503;28;20079;-44
2022/11/26 11:02:02;;;;;;;6.30;2.75;;;;;;;;;;4951298;28;20032;-44
2022/11/26 11:04:50;;;;;;;4.65;2.20;;;;;;;;;;4952162;29;20135;-45
2022/11/26 11:07:33;;;;;;;5.32;2.30;;;;;;;;;;4948979;28;20039;-49
2022/11/26 11:10:17;;;;;;;5.18;1.85;;;;;;;;;;4949228;28;20040;-45
2022/11/26 11:12:49;;;;;;;4.55;2.40;;;;;;;;;;4948250;28;20037;-44
2022/11/26 11:15:19;;;;;;;2.75;1.70;;;;;;;;;;4952521;28;20059;-44
2022/11/26 11:17:52;;;;;;;3.97;1.95;;;;;;;;;;4952780;29;20086;-44
2022/11/26 11:20:28;;;;;;;4.60;1.92;;;;;;;;;;4951256;28;20045;-44
2022/11/26 11:23:00;;;;;;;4.97;1.70;;;;;;;;;;4951259;29;20554;-46
2022/11/26 11:25:32;;;;;;;5.97;1.90;;;;;;;;;;4950547;29;20051;-51
2022/11/26 11:28:21;;;;;;;;;;;;;;;;;;4953010;29;20035;-47
2022/11/26 11:31:09;;;;;;;5.07;1.83;;;;;;;;;;4948450;29;19926;-45
2022/11/26 11:33:34;;;;;;;5.63;2.70;;;;;;;;;;4950839;28;20034;-48
2022/11/26 11:36:01;;;;;;;5.35;2.35;;;;;;;;;;4950254;29;20035;-43
2022/11/26 11:38:30;;;;;;;6.03;2.00;;;;;;;;;;4952206;29;20027;-44
2022/11/26 11:40:57;;;;;;;4.55;2.40;;;;;;;;;;4950951;29;20567;-44
2022/11/26 11:43:24;;;;;;;4.30;2.05;;;;;;;;;;4953128;28;20039;-47
2022/11/26 11:46:26;;;;;;;3.90;1.80;;;;;;;;;;4950103;28;20039;-46
2022/11/26 11:49:13;;;;;;;2.67;1.67;;;;;;;;;;4950708;29;20229;-49
2022/11/26 11:52:06;;;;;;;4.88;2.47;;;;;;;;;;4949666;29;20094;-46
2022/11/26 11:54:48;;;;;;;5.30;2.20;;;;;;;;;;4951301;29;20043;-49
2022/11/26 11:57:34;;;;;;;;;;;;;;;;;;4950400;29;20160;-46
2022/11/26 12:00:14;;;;;;;7.22;1.75;;;;;;;;;;4925580;29;19966;-49
2022/11/26 12:03:13;;;;;;;6.30;1.70;;;;;;;;;;4927351;29;20146;-46
2022/11/26 12:06:11;;;;;;;4.88;2.20;;;;;;;;;;4929592;29;20516;-44
2022/11/26 12:08:41;;;;;;;6.05;2.20;;;;;;;;;;4929034;29;20043;-44
2022/11/26 12:11:23;;;;;;;4.80;2.05;;;;;;;;;;4930878;29;20042;-43
2022/11/26 12:13:57;;;;;;;5.15;2.03;;;;;;;;;;4927892;29;20531;-52
2022/11/26 12:16:26;;;;;;;4.05;2.33;;;;;;;;;;4931023;29;20036;-47
2022/11/26 12:19:08;;;;;;;6.70;2.33;;;;;;;;;;4925507;29;20099;-45
2022/11/26 12:21:43;;;;;;;2.53;1.65;;;;;;;;;;4928569;29;20047;-48
2022/11/26 12:24:13;;;;;;;4.00;1.75;;;;;;;;;;4927843;29;20079;-47
2022/11/26 12:26:50;;;;;;;11.23;2.22;;;;;;;;;;4924038;29;20042;-47
2022/11/26 12:29:36;;;;;;;3.60;1.80;;;;;;;;;;4925321;29;20464;-46
2022/11/26 12:32:11;;;;;;;4.68;2.13;;;;;;;;;;4927075;29;20522;-46
2022/11/26 12:34:44;;;;;;;5.47;1.70;;;;;;;;;;4927650;29;20122;-44
2022/11/26 12:37:25;;;;;;;5.80;2.15;;;;;;;;;;4939351;28;20043;-44
2022/11/26 12:40:06;;;;;;;3.35;1.75;;;;;;;;;;4949049;28;20074;-43
2022/11/26 12:43:06;;;;;;;8.75;2.28;;;;;;;;;;4946767;28;20027;-43
2022/11/26 14:27:30;;;;;;;4.03;2.10;;;;;;;;;;5062687;27;21014;-50
2022/11/26 14:30:07;;;;;;;3.67;1.83;;;;;;;;;;5037482;28;20244;-46
2022/11/26 14:33:11;;;;;;;10.23;2.30;;;;;;;;;;5031806;28;20037;-44
2022/11/26 14:35:38;;;;;;;5.03;2.25;;;;;;;;;;5033192;28;20041;-43
2022/11/26 14:38:21;;;;;;;6.30;2.30;;;;;;;;;;5031950;28;20041;-44
2022/11/26 14:40:55;;;;;;;6.13;2.05;;;;;;;;;;5034527;28;20041;-44
2022/11/26 14:43:21;;;;;;;10.20;4.43;;;;;;;;;;5039140;28;20044;-43
2022/11/26 14:46:12;;;;;;;4.53;2.90;;;;;;;;;;5036170;28;20687;-43
2022/11/26 14:48:44;;;;;;;7.85;3.20;;;;;;;;;;5035814;28;20060;-43
2022/11/26 14:51:10;;;;;;;4.47;2.47;;;;;;;;;;5033979;28;20037;-45
2022/11/26 14:53:42;;;;;;;6.07;2.67;;;;;;;;;;5039819;28;20521;-45
2022/11/26 14:56:08;;;;;;;9.93;2.67;;;;;;;;;;5040971;28;20048;-42
2022/11/26 14:58:47;;;;;;;5.10;2.45;;;;;;;;;;5040680;28;20044;-46
2022/11/26 15:01:25;;;;;;;6.40;2.55;;;;;;;;;;5029520;28;20060;-43
2022/11/26 15:03:56;;;;;;;13.05;2.75;;;;;;;;;;5039454;28;20025;-43
2022/11/26 15:06:37;;;;;;;4.88;2.63;;;;;;;;;;5032767;28;20037;-44
2022/11/26 15:09:17;;;;;;;5.82;2.80;;;;;;;;;;5034840;28;20079;-43
2022/11/26 15:11:48;;;;;;;8.68;2.78;;;;;;;;;;5036249;28;20041;-44
2022/11/26 15:14:23;;;;;;;4.18;2.30;;;;;;;;;;5037707;28;20522;-43
2022/11/26 15:16:58;;;;;;;6.28;2.88;;;;;;;;;;5035641;28;20056;-42
2022/11/26 15:19:25;;;;;;;6.95;2.78;;;;;;;;;;5039392;28;20021;-43
2022/11/26 15:21:50;;;;;;;6.88;2.50;;;;;;;;;;5037257;28;20107;-42
2022/11/26 15:24:17;;;;;;;3.72;2.50;;;;;;;;;;5040581;28;20029;-42
2022/11/26 15:26:45;;;;;;;6.50;2.72;;;;;;;;;;5051143;28;20441;-41
2022/11/26 15:29:40;;;;;;;7.53;3.03;;;;;;;;;;5046059;28;20071;-42
2022/11/26 15:32:22;;;;;;;7.90;2.58;;;;;;;;;;5034251;28;20036;-43
2022/11/26 15:34:48;;;;;;;4.97;2.58;;;;;;;;;;5048711;28;20025;-41
2022/11/26 15:37:13;;;;;;;8.88;3.55;;;;;;;;;;5049599;28;20163;-43
2022/11/26 15:39:38;;;;;;;6.60;2.35;;;;;;;;;;5049703;28;20025;-41
2022/11/26 15:42:21;;;;;;;5.88;2.63;;;;;;;;;;5049281;28;20037;-42
2022/11/26 15:44:47;;;;;;;4.97;2.67;;;;;;;;;;5046416;28;20029;-42
2022/11/26 15:47:19;;;;;;;9.55;2.92;;;;;;;;;;4999830;28;20145;-41
2022/11/26 15:49:50;;;;;;;8.23;3.72;;;;;;;;;;4966558;28;20386;-41
2022/11/26 15:52:22;;;;;;;8.93;4.80;;;;;;;;;;4962505;28;20484;-41
2022/11/26 15:55:08;;;;;;;9.38;5.00;;;;;;;;;;4967505;28;20039;-40
2022/11/26 15:57:37;;;;;;;6.60;4.78;;;;;;;;;;4967383;28;20050;-43
2022/11/26 16:00:48;;;;;;;12.23;5.00;;;;;;;;;;4966290;28;20114;-41
2022/11/26 16:03:34;;;;;;;10.57;5.22;;;;;;;;;;4951941;28;20501;-41
2022/11/26 16:06:00;;;;;;;10.90;5.18;;;;;;;;;;4959052;28;20481;-42
2022/11/26 16:08:30;;;;;;;7.90;4.63;;;;;;;;;;5056832;28;20036;-42
2022/11/26 16:10:55;;;;;;;14.23;5.93;;;;;;;;;;5055042;28;20040;-41
2022/11/26 16:13:26;;;;;;;10.25;5.20;;;;;;;;;;4987177;28;20514;-42
2022/11/26 16:16:03;;;;;;;11.68;6.20;;;;;;;;;;4986217;28;20038;-41
2022/11/26 16:18:54;;;;;;;15.25;7.13;;;;;;;;;;4984402;28;20650;-41
2022/11/26 16:21:27;;;;;;;10.00;5.60;;;;;;;;;;4989939;28;20488;-44
2022/11/26 16:24:06;;;;;;;10.65;4.78;;;;;;;;;;4985355;28;20046;-41
2022/11/26 16:26:51;;;;;;;9.52;5.03;;;;;;;;;;4984050;28;20046;-41
2022/11/26 16:29:17;;;;;;;7.97;3.72;;;;;;;;;;4983416;28;20034;-41
2022/11/26 16:31:42;;;;;;;9.27;4.15;;;;;;;;;;4985172;28;20035;-42
2022/11/26 16:34:08;;;;;;;7.40;4.28;;;;;;;;;;4980763;28;20018;-40
2022/11/26 16:36:33;;;;;;;14.80;6.65;;;;;;;;;;4985949;28;20182;-41
2022/11/26 16:38:59;;;;;;;20.70;11.48;;;;;;;;;;4985575;28;20026;-42
2022/11/26 16:41:25;;;;;;;9.48;4.85;;;;;;;;;;4985906;28;20046;-41